hwlogo.jpg (8581 bytes)
Home Your Weather Products Services Weather On Your Site Contact
HW Version Logo
Weather Info
Your Weather (Options)
Canadian Weather
International Weather
Enter your " Place, State", US Zip Code or ICAO:  
Forecast Information Radar Information
Prince Albert, Saskatchewan, Canada  Lat: 53.22N, Lon: 105.67W
ICAO Used: CYPA
Current Conditions
Updated: 11:00 PM CST SUN FEB 18 2018
Sun & Moon Information
Clear
Clear
Temp: -29°C
Humidity: 75%
Wind Speed: CALM
Barometer: 1022 mb
Dewpoint: -32°C
Heat Index: -29°C
Wind Chill: -29°C
Civil Twilight: 7:39 AM CST Moon Phase:
Waxing Crescent Moon
Sunrise: 8:15 AM CST
Sunset: 6:17 PM CST
Civil Twilight: 6:53 PM CST
Forecast for Prince Albert, SK:
(Forecast based on TAF for )
0742 PM CST SUN FEB 18 2018
  
OVERNIGHT MORNING
Fair Fair
ZoneCast:
Dated: 0742 PM CST SUN FEB 18 2018
Overnight...Partly cloudy with winds from the north at 7 mph. Becoming fair winds variable in direction at 3 mph.

Morning...Fair winds variable in direction at 3 mph.

Original Encoded TAF:
Dated: 0742 PM CST SUN FEB 18 2018
2018/02/19 01:42
TAF CYPA 190038Z 1901/1913 01006KT P6SM FEW030 SCT250 
      BECMG 1902/1904 VRB03KT 
      RMK NXT FCST BY 190700Z